Time;durP1;ratioP1;P1;durP2;ratioP2;P2;SDS_P1;SDS_P2;PMS_P1;PMS_P2;Temp;Humidity;BMP_temperature;BMP_pressure;BME280_temperature;BME280_humidity;BME280_pressure;Samples;Min_cycle;Max_cycle;Signal;HPM_P1;HPM_P2
2023/03/16 00:02:04;;;;;;;;;;;;;;;4.54;100.00;99248.66;5005417;28;19917;-38
2023/03/16 00:04:29;;;;;;;;;;;;;;;4.53;100.00;99252.03;5010239;28;19921;-39
2023/03/16 00:06:55;;;;;;;;;;;;;;;4.50;100.00;99252.06;5008702;28;19926;-39
2023/03/16 00:09:20;;;;;;;;;;;;;;;4.82;100.00;99257.03;5008563;28;19928;-39
2023/03/16 00:11:45;;;;;;;;;;;;;;;5.00;100.00;99253.53;5006224;28;20011;-39
2023/03/16 00:14:10;;;;;;;;;;;;;;;4.96;100.00;99254.41;4999027;28;20028;-39
2023/03/16 00:16:35;;;;;;;;;;;;;;;5.27;100.00;99243.16;5004903;28;20020;-39
2023/03/16 00:19:02;;;;;;;;;;;;;;;5.57;100.00;99231.91;5027523;28;20008;-39
2023/03/16 00:21:29;;;;;;;;;;;;;;;4.81;100.00;99228.97;5007845;28;19956;-39
2023/03/16 00:23:54;;;;;;;;;;;;;;;4.71;100.00;99229.88;5006058;28;19921;-39
2023/03/16 00:26:20;;;;;;;;;;;;;;;4.48;100.00;99240.19;5004217;28;19917;-39
2023/03/16 00:28:45;;;;;;;;;;;;;;;5.16;100.00;99228.78;5005028;28;20585;-39
2023/03/16 00:31:13;;;;;;;;;;;;;;;5.20;100.00;99219.38;5008814;28;20314;-38
2023/03/16 00:33:38;;;;;;;;;;;;;;;4.97;100.00;99202.53;5027128;28;20043;-39
2023/03/16 00:36:06;;;;;;;;;;;;;;;4.84;100.00;99190.69;5003680;28;20521;-39
2023/03/16 00:38:35;;;;;;;;;;;;;;;5.28;100.00;99184.44;5008148;28;19932;-39
2023/03/16 00:41:04;;;;;;;;;;;;;;;4.51;100.00;99179.78;5001098;28;19919;-38
2023/03/16 00:43:30;;;;;;;;;;;;;;;5.12;100.00;99159.88;5003178;28;19922;-39
2023/03/16 00:46:00;;;;;;;;;;;;;;;5.21;100.00;99137.66;5006665;28;19978;-39
2023/03/16 00:48:25;;;;;;;;;;;;;;;4.83;100.00;99140.50;5006112;28;19917;-38
2023/03/16 00:50:53;;;;;;;;;;;;;;;5.01;100.00;99147.19;5010658;28;20631;-39
2023/03/16 00:53:18;;;;;;;;;;;;;;;5.03;100.00;99140.38;5005972;28;19916;-38
2023/03/16 00:55:43;;;;;;;;;;;;;;;4.76;100.00;99151.59;5002032;28;19924;-39
2023/03/16 00:58:08;;;;;;;;;;;;;;;4.67;100.00;99144.00;5009553;28;20003;-38
2023/03/16 01:00:35;;;;;;;;;;;;;;;4.66;100.00;99149.97;5008061;28;19995;-39
2023/03/16 01:03:00;;;;;;;;;;;;;;;4.73;100.00;99143.97;5004748;28;19921;-39
2023/03/16 01:05:25;;;;;;;;;;;;;;;5.17;100.00;99137.72;5002653;28;19917;-38
2023/03/16 01:07:51;;;;;;;;;;;;;;;4.29;100.00;99128.06;5003558;28;19922;-39
2023/03/16 01:10:16;;;;;;;;;;;;;;;4.61;100.00;99117.69;5009817;28;19917;-39
2023/03/16 01:12:44;;;;;;;;;;;;;;;4.60;100.00;99123.63;5004651;28;19929;-39
2023/03/16 01:15:09;;;;;;;;;;;;;;;5.78;100.00;99106.47;5023861;28;19957;-39
2023/03/16 01:17:34;;;;;;;;;;;;;;;5.76;100.00;99067.31;5003670;28;19960;-39
2023/03/16 01:20:00;;;;;;;;;;;;;;;5.32;100.00;99055.88;5004290;28;19953;-38
2023/03/16 01:22:25;;;;;;;;;;;;;;;5.59;100.00;99043.69;5007391;28;19983;-39
2023/03/16 01:24:50;;;;;;;;;;;;;;;6.10;100.00;99046.50;5006624;28;20461;-39
2023/03/16 01:27:16;;;;;;;;;;;;;;;5.92;100.00;99032.19;5009815;28;20502;-39
2023/03/16 01:29:42;;;;;;;;;;;;;;;6.52;100.00;99010.94;5010195;28;20283;-39
2023/03/16 01:32:07;;;;;;;;;;;;;;;5.85;100.00;99013.53;5005301;28;19924;-39
2023/03/16 01:34:33;;;;;;;;;;;;;;;5.87;100.00;99006.72;5003969;28;19921;-39
2023/03/16 01:36:58;;;;;;;;;;;;;;;5.98;100.00;99010.88;5009512;28;19945;-39
2023/03/16 01:39:23;;;;;;;;;;;;;;;5.94;100.00;99009.19;5008136;28;19917;-38
2023/03/16 01:41:49;;;;;;;;;;;;;;;5.55;100.00;99012.22;5002860;28;20079;-39
2023/03/16 01:44:15;;;;;;;;;;;;;;;5.80;100.00;99012.75;5009727;28;19923;-39
2023/03/16 01:46:43;;;;;;;;;;;;;;;5.73;100.00;99000.09;5007689;28;19918;-39
2023/03/16 01:49:11;;;;;;;;;;;;;;;6.31;100.00;98975.47;5009566;28;19917;-39
2023/03/16 01:51:43;;;;;;;;;;;;;;;5.93;100.00;98999.81;5014345;28;19917;-39
2023/03/16 01:54:13;;;;;;;;;;;;;;;5.80;100.00;98982.09;5016171;28;19917;-39
2023/03/16 01:56:58;;;;;;;;;;;;;;;6.53;100.00;98958.91;5023845;28;20000;-39
2023/03/16 01:59:26;;;;;;;;;;;;;;;5.81;100.00;98970.16;5012215;28;20039;-39
2023/03/16 02:01:51;;;;;;;;;;;;;;;5.99;100.00;98952.03;5012484;28;19924;-39
2023/03/16 02:04:25;;;;;;;;;;;;;;;6.44;100.00;98962.44;5027168;28;19918;-39
2023/03/16 02:06:50;;;;;;;;;;;;;;;5.54;100.00;98973.91;5008839;28;19963;-39
2023/03/16 02:09:16;;;;;;;;;;;;;;;5.45;100.00;98988.50;5012438;28;19948;-39
2023/03/16 02:11:41;;;;;;;;;;;;;;;5.17;100.00;98984.53;5024535;28;19921;-39
2023/03/16 02:14:10;;;;;;;;;;;;;;;5.77;100.00;98971.94;5027262;28;19924;-39
2023/03/16 02:16:35;;;;;;;;;;;;;;;6.12;100.00;98957.84;5010311;28;19928;-39
2023/03/16 02:19:00;;;;;;;;;;;;;;;6.22;100.00;98949.16;5004927;28;20386;-39
2023/03/16 02:21:33;;;;;;;;;;;;;;;6.20;100.00;98945.78;5015783;28;19917;-39
2023/03/16 02:24:02;;;;;;;;;;;;;;;5.70;100.00;98952.41;5030033;28;20013;-39
2023/03/16 02:26:37;;;;;;;;;;;;;;;5.64;100.00;98970.38;5005235;28;20274;-39
2023/03/16 02:29:08;;;;;;;;;;;;;;;5.70;100.00;98954.97;5008577;28;19921;-39
2023/03/16 02:31:33;;;;;;;;;;;;;;;5.63;100.00;98961.00;5008024;28;19921;-39
2023/03/16 02:33:58;;;;;;;;;;;;;;;5.59;100.00;98967.91;5009027;28;19917;-39
2023/03/16 02:36:23;;;;;;;;;;;;;;;5.92;100.00;98954.69;5004171;28;19921;-39
2023/03/16 02:38:49;;;;;;;;;;;;;;;6.33;100.00;98950.72;5007768;28;19928;-39
2023/03/16 02:41:15;;;;;;;;;;;;;;;5.62;100.00;98946.56;5009411;28;19924;-39
2023/03/16 02:43:51;;;;;;;;;;;;;;;5.22;100.00;98970.88;5008828;28;19921;-39
2023/03/16 02:46:16;;;;;;;;;;;;;;;5.39;100.00;98980.06;5024531;28;19924;-39
2023/03/16 02:48:41;;;;;;;;;;;;;;;5.80;100.00;98964.22;5006475;28;19917;-39
2023/03/16 02:51:07;;;;;;;;;;;;;;;5.44;100.00;98988.50;5009505;28;19917;-39
2023/03/16 02:53:32;;;;;;;;;;;;;;;5.65;100.00;98987.41;5004403;28;19947;-39
2023/03/16 02:55:57;;;;;;;;;;;;;;;5.16;100.00;98990.53;5012321;28;19918;-39
2023/03/16 02:58:22;;;;;;;;;;;;;;;5.86;100.00;98986.28;5009456;28;20016;-39
2023/03/16 03:00:47;;;;;;;;;;;;;;;5.54;100.00;98963.69;5009006;28;20397;-39
2023/03/16 03:03:13;;;;;;;;;;;;;;;5.78;100.00;98968.50;5010344;28;20446;-39
2023/03/16 03:05:38;;;;;;;;;;;;;;;5.94;100.00;98983.63;5001126;28;19922;-39
2023/03/16 03:08:03;;;;;;;;;;;;;;;5.53;100.00;98982.44;5014203;28;20040;-39
2023/03/16 03:10:29;;;;;;;;;;;;;;;5.75;100.00;98977.94;5008938;28;19975;-39
2023/03/16 03:12:56;;;;;;;;;;;;;;;5.53;100.00;98972.22;5009720;28;19932;-40
2023/03/16 03:15:21;;;;;;;;;;;;;;;5.38;100.00;98963.91;5011467;28;19921;-40
2023/03/16 03:17:46;;;;;;;;;;;;;;;5.67;100.00;98985.66;5007808;28;19917;-39
2023/03/16 03:20:18;;;;;;;;;;;;;;;5.15;100.00;98983.72;5013399;28;20392;-39
2023/03/16 03:22:44;;;;;;;;;;;;;;;5.62;100.00;98974.66;5005742;28;19922;-39
2023/03/16 03:25:11;;;;;;;;;;;;;;;5.26;100.00;98981.88;5009910;28;19936;-39
2023/03/16 03:27:36;;;;;;;;;;;;;;;5.43;100.00;98987.66;5006551;28;19917;-39
2023/03/16 03:30:02;;;;;;;;;;;;;;;5.77;100.00;98982.16;5005760;28;19932;-39
2023/03/16 03:32:27;;;;;;;;;;;;;;;6.18;100.00;98969.66;5024208;28;19921;-39
2023/03/16 03:34:52;;;;;;;;;;;;;;;5.80;100.00;98955.72;5008188;28;20256;-39
2023/03/16 03:37:17;;;;;;;;;;;;;;;5.94;100.00;98968.28;5007463;28;19920;-39
2023/03/16 03:39:44;;;;;;;;;;;;;;;6.05;100.00;98953.69;5010459;28;19921;-39
2023/03/16 03:42:10;;;;;;;;;;;;;;;5.35;100.00;98968.19;5006693;28;19917;-39
2023/03/16 03:44:35;;;;;;;;;;;;;;;5.63;100.00;98946.56;5009988;28;19921;-39
2023/03/16 03:47:01;;;;;;;;;;;;;;;5.55;100.00;98960.28;5007430;28;20673;-39
2023/03/16 03:49:26;;;;;;;;;;;;;;;5.99;100.00;98956.31;5004719;28;19932;-39
2023/03/16 03:51:51;;;;;;;;;;;;;;;5.63;100.00;98973.78;5007253;28;20589;-39
2023/03/16 03:54:16;;;;;;;;;;;;;;;5.43;100.00;98972.34;5000910;28;20505;-39
2023/03/16 03:56:42;;;;;;;;;;;;;;;5.53;100.00;98951.78;5004004;28;20016;-38
2023/03/16 03:59:07;;;;;;;;;;;;;;;5.97;100.00;98935.03;4999364;28;19917;-39
2023/03/16 04:01:32;;;;;;;;;;;;;;;5.42;100.00;98946.81;5004752;28;19986;-39
2023/03/16 04:03:57;;;;;;;;;;;;;;;5.32;100.00;98940.97;5006015;28;19933;-39
2023/03/16 04:06:22;;;;;;;;;;;;;;;6.20;100.00;98925.34;5008650;28;20103;-39
2023/03/16 04:08:48;;;;;;;;;;;;;;;5.63;100.00;98941.44;5001754;28;20398;-39
2023/03/16 04:11:13;;;;;;;;;;;;;;;5.59;100.00;98942.34;5004161;28;19956;-39
2023/03/16 04:13:38;;;;;;;;;;;;;;;5.61;100.00;98929.53;5007477;28;19943;-39
2023/03/16 04:16:04;;;;;;;;;;;;;;;5.92;100.00;98929.13;5005824;28;20279;-39
2023/03/16 04:18:29;;;;;;;;;;;;;;;6.03;100.00;98929.84;5010485;28;19924;-39
2023/03/16 04:20:54;;;;;;;;;;;;;;;5.83;100.00;98917.31;5006769;28;19917;-39
2023/03/16 04:23:20;;;;;;;;;;;;;;;5.60;100.00;98899.75;5011014;28;19928;-39
2023/03/16 04:25:45;;;;;;;;;;;;;;;5.44;100.00;98922.94;5004871;28;19922;-38
2023/03/16 04:28:10;;;;;;;;;;;;;;;6.45;100.00;98889.09;5011396;28;20413;-39
2023/03/16 04:30:36;;;;;;;;;;;;;;;6.21;100.00;98915.94;5003150;28;20535;-39
2023/03/16 04:33:01;;;;;;;;;;;;;;;5.40;100.00;98917.88;5008560;28;19957;-39
2023/03/16 04:35:26;;;;;;;;;;;;;;;5.45;100.00;98906.75;5004731;28;19991;-39
2023/03/16 04:37:51;;;;;;;;;;;;;;;6.25;100.00;98902.25;5001711;28;19921;-39
2023/03/16 04:40:18;;;;;;;;;;;;;;;5.39;100.00;98904.28;5001917;28;19917;-39
2023/03/16 04:42:43;;;;;;;;;;;;;;;5.68;100.00;98915.84;5002606;28;19926;-39
2023/03/16 04:45:09;;;;;;;;;;;;;;;5.89;100.00;98903.63;5007482;28;19971;-39
2023/03/16 04:47:36;;;;;;;;;;;;;;;5.41;100.00;98897.44;5005971;28;20554;-39
2023/03/16 04:50:01;;;;;;;;;;;;;;;6.13;100.00;98897.31;5001077;28;19917;-39
2023/03/16 04:52:27;;;;;;;;;;;;;;;5.70;100.00;98875.75;5007780;28;20033;-39
2023/03/16 04:54:52;;;;;;;;;;;;;;;5.97;100.00;98887.31;5007200;28;19917;-39
2023/03/16 04:57:18;;;;;;;;;;;;;;;5.86;100.00;98895.13;5001124;28;19945;-39
2023/03/16 04:59:43;;;;;;;;;;;;;;;6.20;100.00;98879.31;5001883;28;19925;-39
2023/03/16 05:02:08;;;;;;;;;;;;;;;6.18;100.00;98867.41;5002933;28;19991;-39
2023/03/16 05:04:34;;;;;;;;;;;;;;;5.54;100.00;98875.16;5001993;28;19951;-39
2023/03/16 05:06:59;;;;;;;;;;;;;;;6.02;100.00;98882.13;5004380;28;20367;-39
2023/03/16 05:09:24;;;;;;;;;;;;;;;5.77;100.00;98879.94;5007794;28;20381;-39
2023/03/16 05:11:50;;;;;;;;;;;;;;;6.09;100.00;98870.97;5006682;28;19929;-39
2023/03/16 05:14:15;;;;;;;;;;;;;;;6.80;100.00;98844.16;5003816;28;19917;-39
2023/03/16 05:16:40;;;;;;;;;;;;;;;5.84;100.00;98855.97;5005063;28;19921;-39
2023/03/16 05:19:06;;;;;;;;;;;;;;;6.40;100.00;98855.94;5004725;28;19917;-39
2023/03/16 05:21:33;;;;;;;;;;;;;;;6.52;100.00;98843.81;5002006;28;20839;-39
2023/03/16 05:23:58;;;;;;;;;;;;;;;6.18;100.00;98860.59;5004279;28;19921;-39
2023/03/16 05:26:26;;;;;;;;;;;;;;;6.61;100.00;98857.25;5005422;28;19924;-39
2023/03/16 05:28:51;;;;;;;;;;;;;;;6.69;100.00;98836.66;5002284;28;20884;-39
2023/03/16 05:31:17;;;;;;;;;;;;;;;5.59;100.00;98847.00;5009808;28;19917;-39
2023/03/16 05:33:43;;;;;;;;;;;;;;;6.24;100.00;98857.91;4998772;28;19928;-39
2023/03/16 05:36:08;;;;;;;;;;;;;;;6.69;100.00;98827.28;5008131;28;20509;-39
2023/03/16 05:38:35;;;;;;;;;;;;;;;5.99;100.00;98838.72;5005143;28;19921;-39
2023/03/16 05:41:03;;;;;;;;;;;;;;;5.86;100.00;98859.34;5001300;28;19931;-39
2023/03/16 05:43:28;;;;;;;;;;;;;;;6.25;100.00;98859.63;5007697;28;20267;-39
2023/03/16 05:45:53;;;;;;;;;;;;;;;6.83;100.00;98839.78;5008061;28;20053;-39
2023/03/16 05:48:20;;;;;;;;;;;;;;;6.39;100.00;98863.66;5009300;28;19924;-39
2023/03/16 05:50:45;;;;;;;;;;;;;;;6.40;100.00;98844.88;5000833;28;20432;-39
2023/03/16 05:53:10;;;;;;;;;;;;;;;6.69;100.00;98842.63;5003796;28;19921;-39
2023/03/16 05:55:35;;;;;;;;;;;;;;;6.48;100.00;98853.25;5008090;28;19924;-39
2023/03/16 05:58:00;;;;;;;;;;;;;;;6.29;100.00;98839.94;5011820;28;20374;-39
2023/03/16 06:00:26;;;;;;;;;;;;;;;6.92;100.00;98823.41;5004623;28;19921;-39
2023/03/16 06:02:51;;;;;;;;;;;;;;;6.26;100.00;98822.94;5004454;28;19925;-39
2023/03/16 06:05:17;;;;;;;;;;;;;;;6.45;100.00;98855.84;5018482;28;19921;-39
2023/03/16 06:07:42;;;;;;;;;;;;;;;6.37;100.00;98867.94;5001917;28;20279;-39
2023/03/16 06:10:08;;;;;;;;;;;;;;;6.33;100.00;98850.97;5009254;28;19917;-39
2023/03/16 06:12:33;;;;;;;;;;;;;;;5.90;100.00;98849.06;5008611;28;20279;-39
2023/03/16 06:14:59;;;;;;;;;;;;;;;6.46;100.00;98839.66;5003449;28;20008;-39
2023/03/16 06:17:24;;;;;;;;;;;;;;;6.46;100.00;98830.25;5005658;28;20004;-39
2023/03/16 06:19:49;;;;;;;;;;;;;;;6.61;100.00;98834.22;5006266;28;20266;-39
2023/03/16 06:22:15;;;;;;;;;;;;;;;6.32;100.00;98826.25;5006310;28;20016;-39
2023/03/16 06:24:40;;;;;;;;;;;;;;;6.18;100.00;98840.13;5009989;28;19933;-39
2023/03/16 06:27:05;;;;;;;;;;;;;;;6.72;100.00;98820.41;5012648;28;19917;-39
2023/03/16 06:29:30;;;;;;;;;;;;;;;6.04;100.00;98839.50;5007614;28;20460;-39
2023/03/16 06:31:55;;;;;;;;;;;;;;;6.19;100.00;98836.69;5005750;28;21419;-39
2023/03/16 06:34:21;;;;;;;;;;;;;;;6.60;100.00;98840.22;5009905;28;20441;-39
2023/03/16 06:36:46;;;;;;;;;;;;;;;6.22;100.00;98826.41;5009548;28;19917;-39
2023/03/16 06:39:13;;;;;;;;;;;;;;;6.48;100.00;98820.84;5007029;28;19987;-40
2023/03/16 06:41:38;;;;;;;;;;;;;;;6.50;100.00;98841.28;5008153;28;19920;-40
2023/03/16 06:44:04;;;;;;;;;;;;;;;6.27;100.00;98846.78;5009520;28;19921;-39
2023/03/16 06:46:31;;;;;;;;;;;;;;;6.68;100.00;98819.59;5008052;28;19932;-39
2023/03/16 06:48:57;;;;;;;;;;;;;;;5.83;100.00;98828.72;5004469;28;19917;-39
2023/03/16 06:51:22;;;;;;;;;;;;;;;6.55;100.00;98823.28;5009344;28;19952;-39
2023/03/16 06:53:47;;;;;;;;;;;;;;;6.75;100.00;98799.84;5006358;28;19919;-39
2023/03/16 06:56:13;;;;;;;;;;;;;;;6.31;100.00;98825.41;5004605;28;20626;-39
2023/03/16 06:58:38;;;;;;;;;;;;;;;6.72;100.00;98820.41;5007224;28;19913;-39
2023/03/16 07:01:03;;;;;;;;;;;;;;;6.75;100.00;98830.56;5007441;28;19931;-39
2023/03/16 07:03:28;;;;;;;;;;;;;;;6.75;100.00;98820.34;5011728;28;19925;-39
2023/03/16 07:05:54;;;;;;;;;;;;;;;6.51;100.00;98842.13;5004141;28;20576;-39
2023/03/16 07:08:19;;;;;;;;;;;;;;;7.26;100.00;98812.47;5023211;28;19917;-39
2023/03/16 07:10:44;;;;;;;;;;;;;;;6.47;100.00;98824.25;5006983;28;19921;-39
2023/03/16 07:13:11;;;;;;;;;;;;;;;6.72;100.00;98834.03;5006624;28;20412;-40
2023/03/16 07:15:36;;;;;;;;;;;;;;;7.20;100.00;98822.84;5009819;28;19994;-39
2023/03/16 07:18:02;;;;;;;;;;;;;;;7.26;100.00;98817.59;5007750;28;19972;-39
2023/03/16 07:20:29;;;;;;;;;;;;;;;7.07;100.00;98814.56;5010214;28;19913;-39
2023/03/16 07:22:55;;;;;;;;;;;;;;;6.58;100.00;98818.13;5011945;28;19921;-39
2023/03/16 07:25:20;;;;;;;;;;;;;;;6.91;100.00;98822.59;5010194;28;19924;-39
2023/03/16 07:27:46;;;;;;;;;;;;;;;6.88;100.00;98807.25;5008989;28;20298;-39
2023/03/16 07:30:13;;;;;;;;;;;;;;;7.85;100.00;98817.97;5011097;28;20686;-39
2023/03/16 07:32:38;;;;;;;;;;;;;;;7.51;100.00;98817.91;5008521;28;19928;-39
2023/03/16 07:35:03;;;;;;;;;;;;;;;7.31;100.00;98806.38;5008335;28;19921;-39
2023/03/16 07:37:29;;;;;;;;;;;;;;;6.56;100.00;98850.56;5007719;28;19979;-39
2023/03/16 07:39:55;;;;;;;;;;;;;;;7.01;100.00;98842.88;5008057;28;19956;-39
2023/03/16 07:42:21;;;;;;;;;;;;;;;7.37;100.00;98827.59;5011018;28;19917;-38
2023/03/16 07:44:46;;;;;;;;;;;;;;;7.08;100.00;98835.03;5007064;28;19959;-39
2023/03/16 07:47:12;;;;;;;;;;;;;;;7.42;100.00;98818.13;5009845;28;19918;-39
2023/03/16 07:49:37;;;;;;;;;;;;;;;7.25;100.00;98842.38;5008086;28;19928;-39
2023/03/16 07:52:02;;;;;;;;;;;;;;;7.22;100.00;98841.59;5009144;28;19927;-39
2023/03/16 07:54:27;;;;;;;;;;;;;;;7.73;100.00;98859.25;5010141;28;19923;-39
2023/03/16 07:56:53;;;;;;;;;;;;;;;6.78;100.00;98871.47;5007263;28;20019;-39
2023/03/16 07:59:19;;;;;;;;;;;;;;;7.50;100.00;98858.06;5010553;28;20011;-39
2023/03/16 08:01:45;;;;;;;;;;;;;;;7.31;100.00;98852.47;5007748;28;19925;-39
2023/03/16 08:04:11;;;;;;;;;;;;;;;7.42;100.00;98854.81;5012496;28;19918;-39
2023/03/16 08:06:36;;;;;;;;;;;;;;;7.36;100.00;98875.44;5025458;28;20561;-39
2023/03/16 08:09:01;;;;;;;;;;;;;;;7.30;100.00;98860.22;5007694;28;19994;-39
2023/03/16 08:11:27;;;;;;;;;;;;;;;7.43;100.00;98853.94;5007385;28;20940;-39
2023/03/16 08:13:56;;;;;;;;;;;;;;;7.23;100.00;98853.50;5011942;28;19916;-39
2023/03/16 08:16:22;;;;;;;;;;;;;;;7.70;100.00;98837.09;5008571;28;19953;-39
2023/03/16 08:18:49;;;;;;;;;;;;;;;8.06;100.00;98849.09;5004714;28;19917;-39
2023/03/16 08:21:14;;;;;;;;;;;;;;;7.71;100.00;98830.28;5007484;28;19921;-39
2023/03/16 08:23:39;;;;;;;;;;;;;;;7.90;100.00;98834.06;5006975;28;19921;-39
2023/03/16 08:26:07;;;;;;;;;;;;;;;8.09;100.00;98831.06;5007719;28;19917;-39
2023/03/16 08:28:33;;;;;;;;;;;;;;;8.09;100.00;98843.88;5008474;28;19918;-39
2023/03/16 08:30:58;;;;;;;;;;;;;;;8.71;100.00;98831.22;5004420;28;19918;-39
2023/03/16 08:33:24;;;;;;;;;;;;;;;8.38;100.00;98823.47;5006719;28;19924;-39
2023/03/16 08:35:50;;;;;;;;;;;;;;;8.79;100.00;98807.88;5008561;28;19920;-39
2023/03/16 08:38:15;;;;;;;;;;;;;;;9.40;100.00;98800.13;5006987;28;19948;-39
2023/03/16 08:40:47;;;;;;;;;;;;;;;9.08;100.00;98809.63;5010644;28;20055;-39
2023/03/16 08:43:13;;;;;;;;;;;;;;;8.47;100.00;98811.31;5003846;28;20009;-39
2023/03/16 08:45:38;;;;;;;;;;;;;;;8.18;100.00;98812.88;5009485;28;19920;-39
2023/03/16 08:48:04;;;;;;;;;;;;;;;8.61;100.00;98811.78;5009122;28;19920;-39
2023/03/16 08:50:29;;;;;;;;;;;;;;;9.75;100.00;98787.88;5010425;28;19928;-39
2023/03/16 08:52:54;;;;;;;;;;;;;;;9.36;100.00;98783.09;5007293;28;19917;-40
2023/03/16 08:55:19;;;;;;;;;;;;;;;9.59;100.00;98785.78;5004250;28;19917;-39
2023/03/16 08:57:47;;;;;;;;;;;;;;;9.24;100.00;98809.16;5010533;28;19927;-39
2023/03/16 09:00:13;;;;;;;;;;;;;;;9.27;100.00;98803.94;5008484;28;20861;-39
2023/03/16 09:02:41;;;;;;;;;;;;;;;9.75;100.00;98786.16;5006437;28;19917;-41
2023/03/16 09:05:07;;;;;;;;;;;;;;;8.76;100.00;98803.66;5006564;28;20290;-39
2023/03/16 09:07:35;;;;;;;;;;;;;;;9.24;100.00;98809.16;5006552;28;20524;-39
2023/03/16 09:10:00;;;;;;;;;;;;;;;9.70;100.00;98788.03;5001951;28;20326;-39
2023/03/16 09:12:26;;;;;;;;;;;;;;;9.12;100.00;98790.66;5008174;28;19921;-39
2023/03/16 09:14:51;;;;;;;;;;;;;;;10.12;100.00;98779.78;5008622;28;19949;-39
2023/03/16 09:17:16;;;;;;;;;;;;;;;9.74;100.00;98809.34;5007166;28;19924;-39
2023/03/16 09:19:41;;;;;;;;;;;;;;;9.56;100.00;98791.03;5005571;28;19918;-39
2023/03/16 09:22:06;;;;;;;;;;;;;;;9.35;100.00;98794.25;5008093;28;19971;-39
2023/03/16 09:24:32;;;;;;;;;;;;;;;9.55;100.00;98789.34;5011097;28;19940;-39
2023/03/16 09:26:57;;;;;;;;;;;;;;;9.67;100.00;98805.28;5007343;28;19917;-39
2023/03/16 09:29:23;;;;;;;;;;;;;;;9.21;100.00;98787.84;5010267;28;19928;-39
2023/03/16 09:31:48;;;;;;;;;;;;;;;8.82;100.00;98801.81;5008608;28;19918;-39
2023/03/16 09:34:14;;;;;;;;;;;;;;;9.67;100.00;98788.13;5006850;28;20356;-39
2023/03/16 09:36:39;;;;;;;;;;;;;;;9.21;100.00;98802.38;5008458;28;20389;-39
2023/03/16 09:39:04;;;;;;;;;;;;;;;9.52;100.00;98804.88;5007129;28;19916;-39
2023/03/16 09:41:48;;;;;;;;;;;;;;;8.75;100.00;98825.06;5005983;28;20075;-39
2023/03/16 09:44:32;;;;;;;;;;;;;;;8.88;100.00;98832.47;5007639;28;20050;-39
2023/03/16 09:46:59;;;;;;;;;;;;;;;9.50;100.00;98814.34;5008277;28;20440;-39
2023/03/16 09:49:27;;;;;;;;;;;;;;;10.07;100.00;98798.84;5010705;28;19917;-39
2023/03/16 09:51:55;;;;;;;;;;;;;;;9.96;100.00;98788.91;5005148;28;19972;-39
2023/03/16 09:54:41;;;;;;;;;;;;;;;9.00;100.00;98814.13;5006377;28;19921;-39
2023/03/16 09:57:34;;;;;;;;;;;;;;;9.88;100.00;98806.34;5008167;28;19917;-39
2023/03/16 10:00:04;;;;;;;;;;;;;;;10.02;100.00;98779.25;5009216;28;20039;-39
2023/03/16 10:02:30;;;;;;;;;;;;;;;9.34;100.00;98802.88;5027456;28;19921;-39
2023/03/16 10:05:01;;;;;;;;;;;;;;;9.66;100.00;98809.59;5011710;28;20891;-40
2023/03/16 10:07:29;;;;;;;;;;;;;;;9.84;100.00;98792.72;5008905;28;19914;-42
2023/03/16 10:09:58;;;;;;;;;;;;;;;11.00;100.00;98772.41;5006291;28;19917;-40
2023/03/16 10:12:30;;;;;;;;;;;;;;;10.17;100.00;98793.38;5009192;28;20378;-39
2023/03/16 10:14:56;;;;;;;;;;;;;;;9.82;100.00;98823.63;5010939;28;19917;-39
2023/03/16 10:17:41;;;;;;;;;;;;;;;11.12;100.00;98772.84;5012469;28;20594;-39
2023/03/16 10:20:10;;;;;;;;;;;;;;;10.79;100.00;98779.22;5010032;28;19948;-39
2023/03/16 10:22:41;;;;;;;;;;;;;;;10.20;100.00;98792.41;5011062;28;19940;-39
2023/03/16 10:25:11;;;;;;;;;;;;;;;10.27;100.00;98809.31;5012218;28;20023;-39
2023/03/16 10:27:37;;;;;;;;;;;;;;;10.59;100.00;98768.78;5010872;28;19917;-39
2023/03/16 10:30:04;;;;;;;;;;;;;;;10.54;100.00;98775.84;5014084;28;19960;-39
2023/03/16 10:32:30;;;;;;;;;;;;;;;10.40;100.00;98779.72;5013128;28;19924;-39
2023/03/16 10:34:57;;;;;;;;;;;;;;;10.43;100.00;98774.47;5011132;28;19923;-39
2023/03/16 10:37:22;;;;;;;;;;;;;;;10.72;100.00;98775.19;5008132;28;20599;-39
2023/03/16 10:39:47;;;;;;;;;;;;;;;11.23;99.62;98765.56;5009035;28;19918;-39
2023/03/16 10:42:14;;;;;;;;;;;;;;;10.80;98.25;98765.41;5010263;28;19964;-39
2023/03/16 10:44:39;;;;;;;;;;;;;;;10.44;98.96;98775.31;5009824;28;19925;-39
2023/03/16 10:47:05;;;;;;;;;;;;;;;11.84;99.63;98757.13;5010948;28;19913;-39
2023/03/16 10:49:41;;;;;;;;;;;;;;;11.56;96.46;98737.59;5011736;28;19937;-39
2023/03/16 10:52:13;;;;;;;;;;;;;;;11.02;97.53;98757.75;5009678;28;20595;-39
2023/03/16 10:54:39;;;;;;;;;;;;;;;11.05;96.41;98746.47;5022451;28;19979;-39
2023/03/16 10:57:24;;;;;;;;;;;;;;;11.17;96.08;98740.00;5007069;28;19913;-39
2023/03/16 10:59:50;;;;;;;;;;;;;;;11.29;97.41;98750.69;5011391;28;20183;-39
2023/03/16 11:02:16;;;;;;;;;;;;;;;10.82;96.57;98750.75;5010879;28;20027;-39
2023/03/16 11:04:42;;;;;;;;;;;;;;;12.53;94.87;98710.31;5010121;28;19921;-39
2023/03/16 11:07:13;;;;;;;;;;;;;;;11.28;95.14;98743.84;5009501;28;19917;-39
2023/03/16 11:09:39;;;;;;;;;;;;;;;11.00;93.04;98732.94;5006100;28;20008;-39
2023/03/16 11:12:14;;;;;;;;;;;;;;;11.52;93.24;98718.84;5025208;28;20071;-39
2023/03/16 11:14:44;;;;;;;;;;;;;;;11.69;93.59;98723.28;5010222;28;19918;-39
2023/03/16 11:17:09;;;;;;;;;;;;;;;11.84;93.93;98728.75;5011276;28;19917;-39
2023/03/16 11:19:36;;;;;;;;;;;;;;;10.97;93.68;98740.75;5008757;28;19925;-39
2023/03/16 11:22:08;;;;;;;;;;;;;;;11.37;96.18;98754.72;5006914;28;19967;-39
2023/03/16 11:24:41;;;;;;;;;;;;;;;11.83;94.44;98725.31;5025975;28;19925;-39
2023/03/16 11:27:08;;;;;;;;;;;;;;;10.82;93.20;98735.28;5023579;28;19917;-39
2023/03/16 11:29:33;;;;;;;;;;;;;;;11.46;94.52;98731.13;5010200;28;19928;-39
2023/03/16 11:32:05;;;;;;;;;;;;;;;12.02;94.22;98719.41;5006210;28;19921;-39
2023/03/16 11:34:30;;;;;;;;;;;;;;;12.41;92.01;98693.63;5025065;28;20286;-39
2023/03/16 11:37:02;;;;;;;;;;;;;;;12.40;90.21;98684.19;5008239;28;19917;-39
2023/03/16 11:39:48;;;;;;;;;;;;;;;12.23;91.29;98697.03;5006417;28;19921;-39
2023/03/16 11:42:25;;;;;;;;;;;;;;;11.84;90.99;98696.03;5009846;28;19921;-39
2023/03/16 11:44:58;;;;;;;;;;;;;;;13.19;89.92;98678.84;5023397;28;20040;-39
2023/03/16 11:47:23;;;;;;;;;;;;;;;12.10;91.39;98697.53;5009739;28;20333;-39
2023/03/16 11:49:48;;;;;;;;;;;;;;;12.44;92.62;98696.06;5007206;28;19917;-39
2023/03/16 11:52:32;;;;;;;;;;;;;;;11.92;93.58;98709.47;5011319;28;19952;-39
2023/03/16 11:55:03;;;;;;;;;;;;;;;12.14;92.10;98699.09;5007886;28;19960;-39
2023/03/16 11:57:47;;;;;;;;;;;;;;;12.11;93.08;98713.84;5006762;28;20497;-41
2023/03/16 12:00:15;;;;;;;;;;;;;;;12.17;91.72;98697.28;5009483;28;20267;-39
2023/03/16 12:02:44;;;;;;;;;;;;;;;11.32;92.09;98700.75;5007521;28;19920;-39
2023/03/16 12:05:22;;;;;;;;;;;;;;;11.17;93.52;98694.44;5006749;28;19914;-39
2023/03/16 12:07:51;;;;;;;;;;;;;;;11.54;93.54;98681.81;5010185;28;19960;-39
2023/03/16 12:10:31;;;;;;;;;;;;;;;12.33;92.33;98656.97;5021653;28;19929;-39
2023/03/16 12:13:13;;;;;;;;;;;;;;;11.83;90.45;98659.97;5022648;28;19993;-39
2023/03/16 12:15:41;;;;;;;;;;;;;;;12.69;89.11;98638.13;5007990;28;20047;-39
2023/03/16 12:18:12;;;;;;;;;;;;;;;11.60;92.94;98687.56;4991622;28;20275;-39
2023/03/16 12:20:41;;;;;;;;;;;;;;;11.62;92.96;98679.78;5006377;28;19917;-39
2023/03/16 12:23:12;;;;;;;;;;;;;;;11.97;94.00;98683.47;5006843;28;19976;-39
2023/03/16 12:25:38;;;;;;;;;;;;;;;11.87;94.74;98690.78;5018693;28;20024;-39
2023/03/16 12:28:06;;;;;;;;;;;;;;;11.48;97.39;98713.88;5004248;28;19928;-39
2023/03/16 12:30:37;;;;;;;;;;;;;;;12.11;93.74;98668.25;5008577;28;19917;-39
2023/03/16 12:33:05;;;;;;;;;;;;;;;12.14;94.13;98673.28;5022980;28;20570;-39
2023/03/16 12:35:35;;;;;;;;;;;;;;;13.35;91.58;98637.59;5010292;28;19940;-39
2023/03/16 12:38:14;;;;;;;;;;;;;;;12.24;90.54;98636.72;5022412;28;19928;-39
2023/03/16 12:40:43;;;;;;;;;;;;;;;12.53;91.69;98649.16;5006167;28;19917;-39
2023/03/16 12:43:16;;;;;;;;;;;;;;;11.19;92.51;98673.78;5008817;28;19928;-39
2023/03/16 12:45:43;;;;;;;;;;;;;;;11.98;96.39;98676.59;5005211;28;19917;-39